Gilmore, AR (72339)

12:23 PM CDT on July 28, 2016 (GMT -0500)
Shelby Forest | | Change Station

Elev 285 ft 35.29 °N, 90.02 °W | Updated 7 minutes ago

Overcast
Overcast
87.1 °F
Feels Like 107 °F
N
1.1
Wind Variable Wind from SSW

Today
High -- | Low -- °F
--% Chance of Precip.
Yesterday
High -- | Low -- °F
Precip. -- in
Pressure 29.94 in
Visibility 10.0 miles
Clouds Mostly Cloudy 1200 ft
Overcast 2000 ft
Heat Index 107 °F
Dew Point 82 °F
Humidity 86%
Rainfall 0.07 in
Snow Depth Not available.
6:06 AM 8:07 PM
Waning Crescent, 30% visible
METAR KAWM 281653Z AUTO 22003KT 10SM BKN012 OVC020 27/24 A2996 RMK AO2 SLP139 T02670244
Pressure 29.94 in
Visibility 10.0 miles
Clouds Mostly Cloudy 1200 ft
Overcast 2000 ft
Heat Index 107 °F
Dew Point 82 °F
Humidity 86%
Rainfall 0.07 in
Snow Depth Not available.
6:06 AM 8:07 PM
Waning Crescent, 30% visible
METAR KAWM 281653Z AUTO 22003KT 10SM BKN012 OVC020 27/24 A2996 RMK AO2 SLP139 T02670244

10-Day Weather Forecast

Almanac

Astronomy

Jul. 28, 2016 Rise Set
Actual Time
Civil Twilight
Nautical Twilight
Astronomical Twilight
Moon
Length of Visible Light
Length of Day
Tomorrow will be .
, % of the Moon is Illuminated

Today's Extremes

State Highs State Lows

Community

WunderPhotos

Upload Photos

1,928,163 photos uploaded!

WunderBlog® & News

Nearby

Air Quality

  Air Quality AQ Index Pollutant
Not available.

Snow Depth

Station Depth Elevation

Earthquake Activity

City Distance Mag. Time & Date
Minimum magnitude displayed is 2.5.

Coastal Water Temperatures

Place Temperature

Stations

Nearby Weather Stations

Station Location Temp. Windchill Dew Point Humidity Wind Precip. Elev Updated Type
                   

Watches & Warnings

There are currently no watches in effect.